Flight Track Log - Related Links

Times and Time Zones

All times are in EDT time to prevent confusion due to time zone crossing. See the DAL268 flight status page for this flight to view local times or setup timezone preferences in your user account.

Time Position Orientation Groundspeed Altitude Reporting Facility
EDT Latitude Longitude Course Direction KTS MPH feet Rate Location/Type
Thu 01:54:33 40.6370 -73.7800 261° West  Level FlightAware ADS-B
Thu 01:55:57 40.6380 -73.7790 37° Northeast 11 13 63 Level FlightAware ADS-B
Thu 01:58:00 40.8670 -73.5664 37° Northeast  Level FlightAware Approximate
Thu 01:59:00 40.9736 -73.4613 30° Northeast  Level FlightAware Approximate
Thu 02:00:00 41.0927 -73.3687 30° Northeast  Level FlightAware Approximate
Thu 02:01:00 41.2096 -73.2738 37° Northeast  Level FlightAware Approximate
Thu 02:02:00 41.3189 -73.1655 21° North  Level FlightAware Approximate
Thu 02:02:53 40.6350 -73.7780 143° Southeast 18 21  Level FlightAware ADS-B
Thu 02:03:25 40.6360 -73.7770 37° Northeast 22 25 120 Level FlightAware ADS-B
Thu 02:03:39 40.6360 -73.7760 90° East 28 32 128 Level FlightAware ADS-B
Thu 02:04:07 40.6380 -73.7750 21° North 32 37 131 Level FlightAware ADS-B
Thu 02:04:51 40.6400 -73.7730 37° Northeast 16 18 139 Level FlightAware ADS-B
Thu 02:05:19 40.6420 -73.7720 21° North 15 17 153 Level FlightAware ADS-B
Thu 02:05:47 40.6440 -73.7700 37° Northeast 29 33 164 Level FlightAware ADS-B
Thu 02:06:11 40.6450 -73.7700 360° North 30 35 176 Level FlightAware ADS-B
Thu 02:06:35 40.6460 -73.7690 37° Northeast 30 35 189 Level FlightAware ADS-B
Thu 02:07:01 40.6470 -73.7690 360° North 26 30 202 Level FlightAware ADS-B
Thu 02:07:43 40.6490 -73.7670 37° Northeast 20 23 220 Level FlightAware ADS-B
Thu 02:09:35 40.6490 -73.7660 90° East 12 14 256 Level FlightAware ADS-B
Thu 02:10:29 40.6480 -73.7650 143° Southeast 16 18 452 Level FlightAware ADS-B
Thu 02:12:01 40.6060 -73.7980 211° Southwest 172 198 1,100 771 Climbing FlightAware ADS-B
Thu 02:12:18 40.5978 -73.8067 37° Northeast 171 197 1,400 1,714 Climbing Boston Center
Thu 02:12:29 40.5850 -73.8110 205° Southwest 185 213 1,900 1,756 Climbing FlightAware ADS-B
Thu 02:12:59 40.5610 -73.7980 158° South 213 245 2,600 1,404 Climbing FlightAware ADS-B
Thu 02:13:16 40.5560 -73.7770 107° East 220 253 3,000 1,304 Climbing FlightAware ADS-B
Thu 02:13:45 40.5700 -73.7430 62° Northeast 227 261 3,600 906 Climbing FlightAware ADS-B
Thu 02:14:09 40.5900 -73.7190 42° Northeast 252 290 3,800 900 Climbing FlightAware ADS-B
Thu 02:14:25 40.6060 -73.7030 37° Northeast 263 303 4,200 1,364 Climbing FlightAware ADS-B
Thu 02:14:53 40.6340 -73.6720 40° Northeast 286 329 4,800 1,636 Climbing FlightAware ADS-B
Thu 02:17:00 40.8172 -73.4526 37° Northeast  Level Estimated
Thu 02:17:32 40.8010 -73.5160 37° Northeast 327 376 9,300  Level FlightAware ADS-B
Thu 02:17:49 40.8260 -73.5000 26° Northeast 332 382 10,000 1,600 Climbing FlightAware ADS-B
Thu 02:18:32 40.8890 -73.4590 26° Northeast 368 423 10,900 1,465 Climbing FlightAware ADS-B
Thu 02:19:15 40.9850 -73.3970 26° Northeast 413 475 12,100 1,793 Climbing FlightAware ADS-B
Thu 02:19:59 41.0620 -73.3470 26° Northeast 429 494 13,500 1,923 Climbing FlightAware ADS-B
Thu 02:20:33 41.1170 -73.2940 36° Northeast 440 506 14,600 1,786 Climbing FlightAware ADS-B
Thu 02:21:23 41.1950 -73.2050 41° Northeast 457 526 16,000 1,696 Climbing FlightAware ADS-B
Thu 02:22:05 41.2660 -73.1280 39° Northeast 469 540 17,200 911 Climbing FlightAware ADS-B
Thu 02:22:42 41.3190 -73.0720 38° Northeast 469 540 17,200  Level FlightAware ADS-B
Thu 02:23:30 41.3890 -73.0000 38° Northeast 469 540 17,200  Level FlightAware ADS-B
Thu 02:24:06 41.4410 -72.9450 38° Northeast 469 540 17,200  Level FlightAware ADS-B
Thu 02:24:54 41.5110 -72.8730 38° Northeast 469 540 17,200  Level FlightAware ADS-B
Thu 02:25:30 41.5630 -72.8180 38° Northeast 469 540 17,200 2,552 Level FlightAware ADS-B
Thu 02:28:35 41.9640 -72.3450 41° Northeast 531 611 26,600 2,693 Climbing FlightAware ADS-B
Thu 02:29:15 42.0420 -72.2550 41° Northeast 536 617 27,300 1,134 Climbing FlightAware ADS-B
Thu 02:31:19 42.2520 -72.0100 41° Northeast 540 621 29,700 1,291 Climbing FlightAware ADS-B
Thu 02:32:07 42.3680 -71.8740 41° Northeast 527 606 31,000 839 Climbing FlightAware ADS-B
Thu 02:32:52 42.4520 -71.7770 40° Northeast 525 604 31,000  Level FlightAware ADS-B
Thu 02:33:33 42.5270 -71.6890 41° Northeast 525 604 31,000  Level FlightAware ADS-B
Thu 02:34:12 42.5990 -71.6040 41° Northeast 527 606 31,000  Level FlightAware ADS-B
Thu 02:34:57 42.6800 -71.5080 41° Northeast 527 606 31,000  Level FlightAware ADS-B
Thu 02:35:36 42.7540 -71.4180 42° Northeast 529 609 31,000  Level FlightAware ADS-B
Thu 02:36:20 42.8340 -71.3240 41° Northeast 531 611 31,000  Level FlightAware ADS-B
Thu 02:36:58 42.9050 -71.2370 42° Northeast 533 613 31,000  Level FlightAware ADS-B
Thu 02:37:44 42.9910 -71.1350 41° Northeast 536 617 31,000  Level FlightAware ADS-B
Thu 02:38:24 43.0640 -71.0470 41° Northeast 538 619 31,000  Level FlightAware ADS-B
Thu 02:39:09 43.1470 -70.9460 42° Northeast 538 619 31,000  Level FlightAware ADS-B
Thu 02:39:49 43.2230 -70.8550 41° Northeast 539 620 31,000  Level FlightAware ADS-B
Thu 02:40:33 43.3050 -70.7550 42° Northeast 538 619 31,000  Level FlightAware ADS-B
Thu 02:41:12 43.3770 -70.6660 42° Northeast 539 620 31,000  Level FlightAware ADS-B
Thu 02:41:49 43.4470 -70.5790 42° Northeast 541 623 31,000  Level FlightAware ADS-B
Thu 02:42:33 43.5290 -70.4780 42° Northeast 541 623 31,000  Level FlightAware ADS-B
Thu 02:43:09 43.5950 -70.3970 42° Northeast 541 623 31,000  Level FlightAware ADS-B
Thu 02:43:49 43.6710 -70.3030 42° Northeast 541 623 31,000  Level FlightAware ADS-B
Thu 02:44:29 43.7450 -70.2100 42° Northeast 541 623 31,000  Level FlightAware ADS-B
Thu 02:44:52 43.7840 -70.1610 42° Northeast 542 624 31,000  Level FlightAware ADS-B
Thu 02:45:53 43.9010 -70.0140 42° Northeast 541 623 31,000  Level FlightAware ADS-B
Thu 02:46:33 43.9740 -69.9230 42° Northeast 540 621 31,000  Level FlightAware ADS-B
Thu 02:47:17 44.0450 -69.8340 42° Northeast 541 623 31,000  Level FlightAware ADS-B
Thu 02:47:54 44.1030 -69.7610 42° Northeast 541 623 31,000  Level FlightAware ADS-B
Thu 02:48:37 44.2050 -69.6320 42° Northeast 544 626 31,000  Level FlightAware ADS-B
Thu 02:49:24 44.2820 -69.5330 43° Northeast 544 626 31,000  Level FlightAware ADS-B
Thu 02:49:57 44.3540 -69.4390 43° Northeast 543 625 31,000  Level FlightAware ADS-B
Thu 02:50:47 44.4460 -69.3230 42° Northeast 544 626 31,000  Level FlightAware ADS-B
Thu 02:51:28 44.5190 -69.2270 43° Northeast 546 628 31,000  Level FlightAware ADS-B
Thu 02:52:07 44.5930 -69.1310 43° Northeast 547 629 31,000  Level FlightAware ADS-B
Thu 02:52:52 44.6770 -69.0210 43° Northeast 549 632 31,000  Level FlightAware ADS-B
Thu 02:53:35 44.7590 -68.9140 43° Northeast 550 633 31,000  Level FlightAware ADS-B
Thu 02:54:15 44.8320 -68.8190 43° Northeast 549 632 31,000  Level FlightAware ADS-B
Thu 02:54:59 44.9130 -68.7120 43° Northeast 548 631 31,000  Level FlightAware ADS-B
Thu 02:55:33 44.9760 -68.6290 43° Northeast 548 631 31,000  Level FlightAware ADS-B
Thu 02:56:17 45.0590 -68.5180 43° Northeast 548 631 31,000  Level FlightAware ADS-B
Thu 02:56:57 45.1320 -68.4220 43° Northeast 550 633 31,000  Level FlightAware ADS-B
Thu 02:57:37 45.2060 -68.3230 43° Northeast 550 633 31,000  Level FlightAware ADS-B
Thu 02:58:35 45.3110 -68.1820 43° Northeast 549 632 31,000  Level FlightAware ADS-B
Thu 02:59:16 45.3890 -68.0770 43° Northeast 543 625 31,000  Level FlightAware ADS-B
Thu 03:00:33 45.5190 -67.8990 44° Northeast 544 626 31,000  Level FlightAware ADS-B
Thu 03:01:10 45.5760 -67.8200 44° Northeast 544 626 31,000  Level FlightAware ADS-B
Thu 03:01:55 45.6820 -67.6770 43° Northeast 543 625 31,000  Level FlightAware ADS-B
Thu 03:02:35 45.7540 -67.5780 44° Northeast 545 627 31,000  Level FlightAware ADS-B
Thu 03:03:20 45.8370 -67.4620 44° Northeast 544 626 31,000  Level FlightAware ADS-B
Thu 03:04:01 45.9120 -67.3600 43° Northeast 545 627 31,000  Level FlightAware ADS-B
Thu 03:04:41 45.9840 -67.2590 44° Northeast 544 626 31,000  Level FlightAware ADS-B
Thu 03:05:41 46.0900 -67.0960 47° Northeast 550 633 31,000  Level FlightAware ADS-B
Thu 03:06:24 46.1540 -66.9720 53° Northeast 551 634 31,000  Level FlightAware ADS-B
Thu 03:07:15 46.2220 -66.8370 54° Northeast 552 635 31,000  Level FlightAware ADS-B
Thu 03:08:03 46.2830 -66.7150 54° Northeast 552 635 31,000  Level FlightAware ADS-B
Thu 03:08:39 46.3290 -66.6240 54° Northeast 552 635 31,000  Level FlightAware ADS-B
Thu 03:09:28 46.3910 -66.4990 54° Northeast 552 635 31,000  Level FlightAware ADS-B
Thu 03:10:04 46.4370 -66.4070 54° Northeast 552 635 31,000  Level FlightAware ADS-B
Thu 03:10:41 46.4850 -66.3130 53° Northeast 552 635 31,000  Level FlightAware ADS-B
Thu 03:11:27 46.5430 -66.1960 54° Northeast 552 635 31,000  Level FlightAware ADS-B
Thu 03:12:27 46.6200 -66.0420 54° Northeast 552 635 31,000  Level FlightAware ADS-B
Thu 03:13:15 46.6810 -65.9190 54° Northeast 552 635 31,000  Level FlightAware ADS-B
Thu 03:13:51 46.7270 -65.8270 54° Northeast 552 635 31,000  Level FlightAware ADS-B
Thu 03:14:39 46.7880 -65.7040 54° Northeast 552 635 31,000  Level FlightAware ADS-B
Thu 03:15:36 46.8610 -65.5580 54° Northeast 552 635 31,000  Level FlightAware ADS-B
Thu 03:16:27 46.9260 -65.4270 54° Northeast 552 635 31,000  Level FlightAware ADS-B
Thu 03:17:03 47.2333 -65.2333 54° Northeast 550 633 31,000  Level Moncton Center
Thu 03:18:03 47.3333 -65.0667 48° Northeast 540 621 31,000  Level Moncton Center
Thu 03:19:03 47.4500 -64.9167 41° Northeast 540 621 31,000  Level Moncton Center
Thu 03:20:03 47.5500 -64.7500 48° Northeast 540 621 31,000  Level Moncton Center
Thu 03:21:03 47.6500 -64.6000 45° Northeast 540 621 31,000 400 Level Moncton Center
Thu 03:22:03 47.7667 -64.4167 47° Northeast 540 621 31,800 700 Climbing Moncton Center
Thu 03:23:03 47.8667 -64.2500 48° Northeast 540 621 32,400 300 Climbing Moncton Center
Thu 03:24:03 47.9667 -64.1000 45° Northeast 540 621 32,400  Level Moncton Center
Thu 03:25:03 48.0833 -63.9500 41° Northeast 540 621 32,400 200 Level Moncton Center
Thu 03:26:03 48.1833 -63.8000 45° Northeast 540 621 32,800 300 Climbing Moncton Center
Thu 03:27:03 48.2833 -63.6167 51° Northeast 540 621 33,000 100 Climbing Moncton Center
Thu 03:28:03 48.3833 -63.4667 45° Northeast 540 621 33,000  Level Moncton Center
Thu 03:29:03 48.5000 -63.2833 46° Northeast 540 621 33,000  Level Moncton Center
Thu 03:30:03 48.6000 -63.1333 45° Northeast 540 621 33,000  Level Moncton Center
Thu 03:31:03 48.7000 -62.9833 45° Northeast 540 621 33,000  Level Moncton Center
Thu 03:32:03 48.8167 -62.8000 46° Northeast 550 633 33,000  Level Moncton Center
Thu 03:33:03 48.9167 -62.6333 48° Northeast 540 621 33,000  Level Moncton Center
Thu 03:34:03 49.0000 -62.4500 55° Northeast 550 633 33,000 -50 Level Moncton Center
Thu 03:35:03 49.1167 -62.3000 40° Northeast 540 621 32,900  Descending Moncton Center
Thu 03:36:03 49.2167 -62.1333 47° Northeast 530 610 33,000 50 Climbing Moncton Center
Thu 03:37:03 49.3167 -61.9500 50° Northeast 520 598 33,000  Level Moncton Center
Thu 03:38:03 49.4167 -61.8000 44° Northeast 530 610 33,000  Level Moncton Center
Thu 03:39:03 49.5167 -61.6333 47° Northeast 530 610 33,000  Level Moncton Center
Thu 03:40:03 49.6167 -61.4500 50° Northeast 530 610 33,000  Level Moncton Center
Thu 03:41:03 49.7167 -61.2833 47° Northeast 540 621 33,000  Level Moncton Center
Thu 03:42:03 49.8167 -61.1000 50° Northeast 540 621 33,000  Level Moncton Center
Thu 03:43:03 49.9167 -60.9333 47° Northeast 540 621 33,000  Level Moncton Center
Thu 03:44:03 50.0167 -60.7500 50° Northeast 540 621 33,000  Level Moncton Center
Thu 03:45:03 50.1167 -60.5833 47° Northeast 540 621 33,000  Level Moncton Center
Thu 03:46:03 50.2333 -60.4000 45° Northeast 540 621 33,000  Level Moncton Center
Thu 03:47:03 50.3167 -60.2333 52° Northeast 540 621 33,000  Level Moncton Center
Thu 03:48:03 50.4167 -60.0667 47° Northeast 540 621 33,000  Level Moncton Center
Thu 03:49:03 50.5167 -59.9000 47° Northeast 540 621 33,000  Level Moncton Center
Thu 03:50:03 50.6167 -59.7000 52° Northeast 540 621 33,000  Level Moncton Center
Thu 03:51:03 50.7167 -59.5333 47° Northeast 540 621 33,000  Level Moncton Center
Thu 03:52:03 50.8000 -59.3167 59° Northeast 540 621 33,000  Level Moncton Center
Thu 03:53:03 50.8833 -59.1500 52° Northeast 540 621 33,000  Level Moncton Center
Thu 03:54:03 50.9667 -58.9500 56° Northeast 530 610 33,000  Level Moncton Center
Thu 03:55:03 51.0667 -58.7500 51° Northeast 530 610 33,000  Level Moncton Center
Thu 03:56:03 51.1500 -58.5500 56° Northeast 530 610 33,000  Level Moncton Center
Thu 03:57:03 51.2500 -58.3833 46° Northeast 530 610 33,000  Level Moncton Center
Thu 03:58:03 51.3333 -58.1833 56° Northeast 530 610 33,000  Level Moncton Center
Thu 03:59:03 51.4167 -57.9833 56° Northeast 540 621 33,000  Level Moncton Center
Thu 04:00:03 51.5000 -57.8000 54° Northeast 550 633 33,000  Level Moncton Center
Thu 04:01:03 51.5833 -57.6000 56° Northeast 520 598 33,000  Level Moncton Center
Thu 04:02:03 51.6667 -57.4333 51° Northeast 530 610 33,000  Level Moncton Center
Thu 04:03:03 51.7667 -57.2167 53° Northeast 530 610 33,000  Level Moncton Center
Thu 04:04:03 51.8500 -57.0167 56° Northeast 520 598 33,000  Level Moncton Center
Thu 04:05:03 51.9333 -56.8167 56° Northeast 520 598 33,000  Level Moncton Center
Thu 04:06:03 52.0167 -56.6333 54° Northeast 520 598 33,000  Level Moncton Center
Thu 04:07:03 52.1000 -56.4333 56° Northeast 520 598 33,000  Level Moncton Center
Thu 04:08:03 52.1833 -56.2500 53° Northeast 520 598 33,000  Level Moncton Center
Thu 04:09:03 52.2667 -56.0500 56° Northeast 520 598 33,000  Level Moncton Center
Thu 04:10:03 52.3333 -55.8667 59° Northeast 520 598 33,000  Level Moncton Center
Thu 04:11:03 52.4167 -55.6667 56° Northeast 530 610 33,000  Level Moncton Center
Thu 04:12:03 52.5167 -55.4500 53° Northeast 530 610 33,000  Level Moncton Center
Thu 04:13:03 52.6000 -55.2667 53° Northeast 520 598 33,000  Level Moncton Center
Thu 04:14:03 52.6833 -55.0500 58° Northeast 520 598 33,000  Level Moncton Center
Thu 04:15:03 52.7500 -54.8500 61° Northeast 520 598 33,000  Level Moncton Center
Thu 04:16:03 52.8333 -54.6667 53° Northeast 530 610 33,000  Level Moncton Center
Thu 04:17:16 52.9167 -54.4333 59° Northeast 520 598 33,000  Level Gander Center
Thu 04:18:16 53.0000 -54.2167 57° Northeast 520 598 33,000  Level Gander Center
Thu 04:19:16 53.0833 -54.0167 55° Northeast 530 610 33,000  Level Gander Center
Thu 04:20:16 53.1333 -53.7833 70° East 530 610 33,000  Level Gander Center
Thu 04:21:16 53.2000 -53.5333 66° East 530 610 33,000  Level Gander Center
Thu 04:22:16 53.2500 -53.3000 70° East 530 610 33,000  Level Gander Center
Thu 04:23:16 53.2833 -53.0833 75° East 530 610 33,000  Level Gander Center
Thu 04:24:16 53.3500 -52.8667 63° Northeast 530 610 33,000  Level Gander Center
Thu 04:25:16 53.4000 -52.6333 70° East 530 610 33,000  Level Gander Center
Thu 04:26:16 53.4333 -52.4000 76° East 530 610 33,000  Level Gander Center
Thu 04:27:16 53.4833 -52.1667 70° East 530 610 33,000  Level Gander Center
Thu 04:28:16 53.5333 -51.9333 70° East 530 610 33,000  Level Gander Center
Thu 04:29:16 53.6000 -51.6833 66° East 520 598 33,000  Level Gander Center
Thu 04:30:16 53.6333 -51.4500 76° East 530 610 33,000  Level Gander Center
Thu 04:31:16 53.6833 -51.2667 65° Northeast 530 610 33,000  Level Gander Center
Thu 04:33:53 53.8167 -50.6167 71° East 470 541 33,000  Level Gander Center
Thu 04:34:53 53.8667 -50.4167 67° East 520 598 33,000  Level Gander Center
Thu 04:35:53 53.9167 -50.1833 70° East 520 598 33,000  Level Gander Center
Thu 04:37:00 54.0105 -49.9567 68° East  Level FlightAware Approximate
Thu 04:44:00 54.3885 -48.3562 68° East  Level FlightAware Approximate
Thu 04:45:00 54.4422 -48.1262 68° East  Level FlightAware Approximate
Thu 04:46:00 54.4955 -47.8955 68° East  Level FlightAware Approximate
Thu 04:47:00 54.5483 -47.6643 68° East  Level FlightAware Approximate
Thu 04:48:00 54.6005 -47.4323 69° East  Level FlightAware Approximate
Thu 04:49:00 54.6521 -47.1996 69° East  Level FlightAware Approximate
Thu 04:50:00 54.7034 -46.9664 69° East  Level FlightAware Approximate
Thu 04:51:00 54.7541 -46.7326 69° East  Level FlightAware Approximate
Thu 04:52:00 54.8044 -46.4982 69° East  Level FlightAware Approximate
Thu 04:53:00 54.8542 -46.2632 70° East  Level FlightAware Approximate
Thu 04:54:00 54.9036 -46.0277 70° East  Level FlightAware Approximate
Thu 04:55:00 54.9526 -45.7915 70° East  Level FlightAware Approximate
Thu 04:56:00 55.0010 -45.5548 70° East  Level FlightAware Approximate
Thu 04:57:00 55.0490 -45.3175 70° East  Level FlightAware Approximate
Thu 04:58:00 55.0966 -45.0797 71° East  Level FlightAware Approximate
Thu 04:59:00 55.1437 -44.8413 71° East  Level FlightAware Approximate
Thu 05:00:00 55.1903 -44.6023 71° East  Level FlightAware Approximate
Thu 05:01:00 55.2365 -44.3628 71° East  Level FlightAware Approximate
Thu 05:02:00 55.2821 -44.1227 71° East  Level FlightAware Approximate
Thu 05:03:00 55.3274 -43.8821 72° East  Level FlightAware Approximate
Thu 05:04:00 55.3731 -43.6415 71° East  Level FlightAware Approximate
Thu 05:05:00 55.4186 -43.4005 72° East  Level FlightAware Approximate
Thu 05:06:00 55.4636 -43.1589 72° East  Level FlightAware Approximate
Thu 05:07:00 55.5082 -42.9168 72° East  Level FlightAware Approximate
Thu 05:08:00 55.5522 -42.6741 72° East  Level FlightAware Approximate
Thu 05:09:00 55.5958 -42.4309 72° East  Level FlightAware Approximate
Thu 05:10:00 55.6389 -42.1871 73° East  Level FlightAware Approximate
Thu 05:11:00 55.6815 -41.9428 73° East  Level FlightAware Approximate
Thu 05:12:00 55.7236 -41.6980 73° East  Level FlightAware Approximate
Thu 05:13:00 55.7652 -41.4527 73° East  Level FlightAware Approximate
Thu 05:14:00 55.8064 -41.2068 73° East  Level FlightAware Approximate
Thu 05:15:00 55.8470 -40.9604 74° East  Level FlightAware Approximate
Thu 05:16:00 55.8872 -40.7136 74° East  Level FlightAware Approximate
Thu 05:17:00 55.9268 -40.4661 74° East  Level FlightAware Approximate
Thu 05:18:00 55.9660 -40.2182 74° East  Level FlightAware Approximate
Thu 05:19:00 56.0012 -39.9688 86° East  Level FlightAware Approximate
Thu 05:20:00 56.0106 -39.7113 86° East  Level FlightAware Approximate
Thu 05:21:00 56.0192 -39.4594 86° East  Level FlightAware Approximate
Thu 05:22:00 56.0274 -39.2074 87° East  Level FlightAware Approximate
Thu 05:23:00 56.0350 -38.9552 87° East  Level FlightAware Approximate
Thu 05:24:00 56.0421 -38.7030 87° East  Level FlightAware Approximate
Thu 05:25:00 56.0488 -38.4507 87° East  Level FlightAware Approximate
Thu 05:26:00 56.0549 -38.1982 87° East  Level FlightAware Approximate
Thu 05:27:00 56.0604 -37.9458 88° East  Level FlightAware Approximate
Thu 05:28:00 56.0655 -37.6932 88° East  Level FlightAware Approximate
Thu 05:29:00 56.0700 -37.4406 88° East  Level FlightAware Approximate
Thu 05:30:00 56.0741 -37.1879 88° East  Level FlightAware Approximate
Thu 05:31:00 56.0776 -36.9352 88° East  Level FlightAware Approximate
Thu 05:32:00 56.0806 -36.6824 89° East  Level FlightAware Approximate
Thu 05:33:00 56.0831 -36.4296 89° East  Level FlightAware Approximate
Thu 05:34:00 56.0850 -36.1768 89° East  Level FlightAware Approximate
Thu 05:35:00 56.0865 -35.9239 89° East  Level FlightAware Approximate
Thu 05:36:00 56.0874 -35.6710 90° East  Level FlightAware Approximate
Thu 05:37:00 56.0878 -35.4181 90° East  Level FlightAware Approximate
Thu 05:38:00 56.0877 -35.1653 90° East  Level FlightAware Approximate
Thu 05:39:00 56.0871 -34.9124 90° East  Level FlightAware Approximate
Thu 05:40:00 56.0860 -34.6595 90° East  Level FlightAware Approximate
Thu 05:41:00 56.0843 -34.4067 91° East  Level FlightAware Approximate
Thu 05:42:00 56.0830 -34.1538 90° East  Level FlightAware Approximate
Thu 05:43:00 56.0819 -33.9010 90° East  Level FlightAware Approximate
Thu 05:44:00 56.0804 -33.6482 91° East  Level FlightAware Approximate
Thu 05:45:00 56.0783 -33.3954 91° East  Level FlightAware Approximate
Thu 05:46:00 56.0757 -33.1426 91° East  Level FlightAware Approximate
Thu 05:47:00 56.0725 -32.8899 91° East  Level FlightAware Approximate
Thu 05:48:00 56.0689 -32.6372 91° East  Level FlightAware Approximate
Thu 05:49:00 56.0647 -32.3845 92° East  Level FlightAware Approximate
Thu 05:50:00 56.0601 -32.1320 92° East  Level FlightAware Approximate
Thu 05:51:00 56.0549 -31.8794 92° East  Level FlightAware Approximate
Thu 05:52:00 56.0492 -31.6270 92° East  Level FlightAware Approximate
Thu 05:53:00 56.0430 -31.3746 92° East  Level FlightAware Approximate
Thu 05:54:00 56.0362 -31.1224 93° East  Level FlightAware Approximate
Thu 05:55:00 56.0290 -30.8702 93° East  Level FlightAware Approximate
Thu 05:56:00 56.0212 -30.6181 93° East  Level FlightAware Approximate
Thu 05:57:00 56.0129 -30.3661 93° East  Level FlightAware Approximate
Thu 05:58:00 56.0042 -30.1142 93° East  Level FlightAware Approximate
Thu 05:59:00 56.0055 -29.8629 86° East  Level FlightAware Approximate
Thu 06:00:00 56.0151 -29.6115 86° East  Level FlightAware Approximate
Thu 06:01:00 56.0243 -29.3601 86° East  Level FlightAware Approximate
Thu 06:02:00 56.0329 -29.1084 86° East  Level FlightAware Approximate
Thu 06:03:00 56.0410 -28.8567 87° East  Level FlightAware Approximate
Thu 06:04:00 56.0486 -28.6049 87° East  Level FlightAware Approximate
Thu 06:05:00 56.0557 -28.3530 87° East  Level FlightAware Approximate
Thu 06:06:00 56.0623 -28.1010 87° East  Level FlightAware Approximate
Thu 06:07:00 56.0684 -27.8489 87° East  Level FlightAware Approximate
Thu 06:08:00 56.0739 -27.5968 88° East  Level FlightAware Approximate
Thu 06:09:00 56.0790 -27.3445 88° East  Level FlightAware Approximate
Thu 06:10:00 56.0835 -27.0923 88° East  Level FlightAware Approximate
Thu 06:11:00 56.0875 -26.8399 88° East  Level FlightAware Approximate
Thu 06:12:00 56.0910 -26.5875 88° East  Level FlightAware Approximate
Thu 06:13:00 56.0940 -26.3351 89° East  Level FlightAware Approximate
Thu 06:14:00 56.0965 -26.0826 89° East  Level FlightAware Approximate
Thu 06:15:00 56.0984 -25.8301 89° East  Level FlightAware Approximate
Thu 06:16:00 56.0998 -25.5776 89° East  Level FlightAware Approximate
Thu 06:17:00 56.1008 -25.3251 90° East  Level FlightAware Approximate
Thu 06:18:00 56.1012 -25.0725 90° East  Level FlightAware Approximate
Thu 06:19:00 56.1011 -24.8200 90° East  Level FlightAware Approximate
Thu 06:20:00 56.1004 -24.5674 90° East  Level FlightAware Approximate
Thu 06:21:00 56.0993 -24.3149 90° East  Level FlightAware Approximate
Thu 06:22:00 56.0976 -24.0624 91° East  Level FlightAware Approximate
Thu 06:23:00 56.0955 -23.8099 91° East  Level FlightAware Approximate
Thu 06:24:00 56.0928 -23.5574 91° East  Level FlightAware Approximate
Thu 06:25:00 56.0896 -23.3050 91° East  Level FlightAware Approximate
Thu 06:26:00 56.0859 -23.0526 91° East  Level FlightAware Approximate
Thu 06:27:00 56.0816 -22.8003 92° East  Level FlightAware Approximate
Thu 06:28:00 56.0769 -22.5481 92° East  Level FlightAware Approximate
Thu 06:29:00 56.0716 -22.2959 92° East  Level FlightAware Approximate
Thu 06:30:00 56.0659 -22.0437 92° East  Level FlightAware Approximate
Thu 06:31:00 56.0596 -21.7917 92° East  Level FlightAware Approximate
Thu 06:32:00 56.0528 -21.5397 93° East  Level FlightAware Approximate
Thu 06:33:00 56.0455 -21.2879 93° East  Level FlightAware Approximate
Thu 06:34:00 56.0376 -21.0361 93° East  Level FlightAware Approximate
Thu 06:35:00 56.0293 -20.7844 93° East  Level FlightAware Approximate
Thu 06:36:00 56.0205 -20.5329 93° East  Level FlightAware Approximate
Thu 06:37:00 56.0111 -20.2819 94° East  Level FlightAware Approximate
Thu 06:38:00 56.0013 -20.0310 94° East  Level FlightAware Approximate
Thu 06:39:00 55.9766 -19.7837 101° East  Level FlightAware Approximate
Thu 06:40:00 55.9495 -19.5371 101° East  Level FlightAware Approximate
Thu 06:41:00 55.9219 -19.2910 101° East  Level FlightAware Approximate
Thu 06:42:00 55.8938 -19.0452 101° East  Level FlightAware Approximate
Thu 06:43:00 55.8652 -18.7997 102° East  Level FlightAware Approximate
Thu 06:44:00 55.8361 -18.5546 102° East  Level FlightAware Approximate
Thu 06:45:00 55.8066 -18.3099 102° East  Level FlightAware Approximate
Thu 06:46:00 55.7765 -18.0656 102° East  Level FlightAware Approximate
Thu 06:47:00 55.7460 -17.8216 102° East  Level FlightAware Approximate
Thu 06:48:00 55.7150 -17.5781 103° East  Level FlightAware Approximate
Thu 06:49:00 55.6834 -17.3349 103° East  Level FlightAware Approximate
Thu 06:50:00 55.6515 -17.0921 103° East  Level FlightAware Approximate
Thu 06:51:00 55.6190 -16.8497 103° East  Level FlightAware Approximate
Thu 06:52:00 55.5861 -16.6077 103° East  Level FlightAware Approximate
Thu 06:53:00 55.5527 -16.3661 104° East  Level FlightAware Approximate
Thu 06:54:00 55.5188 -16.1249 104° East  Level FlightAware Approximate
Thu 06:55:00 55.4844 -15.8842 104° East  Level FlightAware Approximate
Thu 06:56:00 55.4496 -15.6439 104° East  Level FlightAware Approximate
Thu 06:57:00 55.4143 -15.4040 104° East  Level FlightAware Approximate
Thu 06:58:00 55.3787 -15.1653 105° East  Level FlightAware Approximate
Thu 06:59:00 55.3425 -14.9270 105° East  Level FlightAware Approximate
Thu 07:00:00 55.3060 -14.6892 105° East  Level FlightAware Approximate
Thu 07:01:00 55.2689 -14.4519 105° East  Level FlightAware Approximate
Thu 07:02:00 55.2314 -14.2150 105° East  Level FlightAware Approximate
Thu 07:02:45 55.4940 -13.1590 106° East 506 582 33,000  Level FlightAware ADS-B
Thu 07:03:00 55.1935 -13.9785 106° East  Level FlightAware Approximate
Thu 07:03:23 55.4490 -13.0180 119° Southeast 507 583 33,000  Level FlightAware ADS-B
Thu 07:04:03 55.4000 -12.8620 119° Southeast 507 583 33,000  Level FlightAware ADS-B
Thu 07:04:48 55.3490 -12.7030 119° Southeast 508 585 33,000  Level FlightAware ADS-B
Thu 07:05:29 55.3010 -12.5590 120° Southeast 508 585 33,000  Level FlightAware ADS-B
Thu 07:06:08 55.2540 -12.4150 120° Southeast 512 589 33,000  Level FlightAware ADS-B
Thu 07:06:49 55.2060 -12.2680 120° Southeast 512 589 33,000  Level FlightAware ADS-B
Thu 07:07:28 55.1590 -12.1240 120° Southeast 511 588 33,000  Level FlightAware ADS-B
Thu 07:08:09 55.1120 -11.9820 120° Southeast 511 588 33,000  Level FlightAware ADS-B
Thu 07:08:48 55.0660 -11.8460 121° Southeast 511 588 33,000  Level FlightAware ADS-B
Thu 07:09:28 55.0180 -11.7010 120° Southeast 510 587 33,000  Level FlightAware ADS-B
Thu 07:10:08 54.9690 -11.5560 120° Southeast 510 587 33,000  Level FlightAware ADS-B
Thu 07:10:53 54.9160 -11.4010 121° Southeast 511 588 33,000  Level FlightAware ADS-B
Thu 07:12:00 54.8560 -11.2280 121° Southeast 511 588 33,000  Level FlightAware ADS-B
Thu 07:12:46 54.7790 -11.0030 121° Southeast 506 582 33,000  Level FlightAware ADS-B
Thu 07:13:26 54.7310 -10.8670 121° Southeast 506 582 33,000  Level FlightAware ADS-B
Thu 07:14:36 54.6460 -10.6240 121° Southeast 503 579 33,000  Level FlightAware ADS-B
Thu 07:15:25 54.6010 -10.4880 120° Southeast 502 578 33,000  Level FlightAware ADS-B
Thu 07:16:09 54.5580 -10.2820 110° East 500 575 33,000  Level FlightAware ADS-B
Thu 07:16:53 54.5230 -10.1180 110° East 500 575 33,000  Level FlightAware ADS-B
Thu 07:17:28 54.4950 -9.9840 110° East 498 573 33,000  Level FlightAware ADS-B
Thu 07:18:13 54.4620 -9.8190 109° East 498 573 33,000  Level FlightAware ADS-B
Thu 07:18:54 54.4310 -9.6700 110° East 497 572 33,000  Level FlightAware ADS-B
Thu 07:19:28 54.4040 -9.5400 110° East 494 568 33,000  Level FlightAware ADS-B
Thu 07:20:14 54.3690 -9.3700 109° East 493 567 33,000  Level FlightAware ADS-B
Thu 07:20:58 54.3340 -9.2080 110° East 493 567 33,000  Level FlightAware ADS-B
Thu 07:21:39 54.3030 -9.0600 110° East 494 568 33,000  Level FlightAware ADS-B
Thu 07:22:23 54.2670 -8.8910 110° East 492 566 33,000 -78 Level FlightAware ADS-B
Thu 07:22:56 54.2404 -8.7654 110° East 496 571 32,900  Descending FlightAware UK
Thu 07:22:58 54.2400 -8.7670 110° East 491 565 33,000 128 Climbing FlightAware ADS-B
Thu 07:23:43 54.2050 -8.6020 110° East 491 565 33,000  Level FlightAware ADS-B
Thu 07:24:18 54.1760 -8.4710 111° Southeast 490 564 33,000 -82 Level FlightAware ADS-B
Thu 07:24:56 54.1447 -8.3267 111° Southeast 496 571 32,900  Descending FlightAware UK
Thu 07:25:04 54.1400 -8.3070 111° Southeast 489 563 33,000 894 Climbing FlightAware ADS-B
Thu 07:25:43 54.1100 -8.1650 110° East 490 564 33,600 1,216 Climbing FlightAware ADS-B
Thu 07:26:18 54.0790 -8.0360 112° Southeast 489 563 34,500 1,068 Climbing FlightAware ADS-B
Thu 07:26:56 54.0445 -7.8952 112° Southeast 490 564 34,900 750 Climbing FlightAware UK
Thu 07:26:58 54.0440 -7.8940 112° Southeast 488 562 35,000 128 Climbing FlightAware ADS-B
Thu 07:27:43 54.0050 -7.7380 113° Southeast 486 559 35,000  Level FlightAware ADS-B
Thu 07:28:19 53.9770 -7.6090 110° East 485 558 35,000 -82 Level FlightAware ADS-B
Thu 07:28:56 53.9463 -7.4659 110° East 486 559 34,900  Descending FlightAware UK
Thu 07:28:58 53.9460 -7.4690 110° East 486 559 35,000 125 Climbing FlightAware ADS-B
Thu 07:29:44 53.9090 -7.3040 111° Southeast 489 563 35,000  Level FlightAware ADS-B
Thu 07:30:26 53.8900 -7.2220 111° Southeast 491 565 35,000 -140 Level FlightAware ADS-B
Thu 07:30:27 53.8729 -7.1438 111° Southeast 488 562 34,900 -194 Descending FlightAware UK
Thu 07:30:57 53.8481 -7.0369 111° Southeast 488 562 34,900 111 Level FlightAware UK
Thu 07:31:21 53.8280 -6.9540 111° Southeast 491 565 35,000  Climbing FlightAware ADS-B
Thu 07:31:57 53.7985 -6.8227 111° Southeast 490 564 34,900  Descending FlightAware UK
Thu 07:32:03 53.7940 -6.8050 111° Southeast 492 566 35,000 125 Climbing FlightAware ADS-B
Thu 07:32:45 53.7590 -6.6580 112° Southeast 492 566 35,000 -71 Level FlightAware ADS-B
Thu 07:33:27 53.7227 -6.5013 112° Southeast 492 566 34,900  Descending FlightAware UK
Thu 07:33:27 53.7230 -6.5050 112° Southeast 493 567 35,000  Climbing FlightAware ADS-B
Thu 07:34:03 53.6924 -6.3729 112° Southeast 490 564 34,900  Descending FlightAware UK
Thu 07:34:05 53.6900 -6.3690 112° Southeast 493 567 35,000 122 Climbing FlightAware ADS-B
Thu 07:34:52 53.6510 -6.1980 111° Southeast 492 566 35,000  Level FlightAware ADS-B
Thu 07:35:32 53.6160 -6.0560 111° Southeast 492 566 35,000  Level FlightAware ADS-B
Thu 07:35:33 53.6161 -6.0524 111° Southeast 490 564 35,000  Level FlightAware UK
Thu 07:36:03 53.5898 -5.9457 111° Southeast 490 564 35,000  Level FlightAware UK
Thu 07:36:16 53.5780 -5.9000 111° Southeast 491 565 35,000  Level FlightAware ADS-B
Thu 07:36:57 53.5440 -5.7620 112° Southeast 491 565 35,000  Level FlightAware ADS-B
Thu 07:37:35 53.5100 -5.6250 112° Southeast 492 566 35,000  Level FlightAware ADS-B
Thu 07:37:39 53.5069 -5.6070 112° Southeast 488 562 35,000  Level FlightAware UK
Thu 07:38:09 53.4852 -5.4983 112° Southeast 488 562 35,000  Level FlightAware UK
Thu 07:38:21 53.4800 -5.4580 112° Southeast 492 566 35,000  Level FlightAware ADS-B
Thu 07:39:01 53.4740 -5.3090 94° East 494 568 35,000  Level FlightAware ADS-B
Thu 07:39:45 53.4696 -5.1323 94° East 490 564 35,000  Level FlightAware UK
Thu 07:39:46 53.4690 -5.1290 94° East 494 568 35,000  Level FlightAware ADS-B
Thu 07:40:22 53.4650 -4.9910 93° East 494 568 35,000  Level FlightAware ADS-B
Thu 07:41:00 53.4610 -4.8540 93° East 494 568 35,000  Level FlightAware ADS-B
Thu 07:41:43 53.4550 -4.6850 93° East 494 568 35,000  Level FlightAware ADS-B
Thu 07:42:27 53.4490 -4.5170 93° East 493 567 35,000  Level FlightAware ADS-B
Thu 07:43:05 53.4440 -4.3720 93° East 493 567 35,000  Level FlightAware ADS-B
Thu 07:43:51 53.4370 -4.1970 94° East 494 568 35,000  Level FlightAware ADS-B
Thu 07:44:31 53.4310 -4.0440 94° East 495 570 35,000  Level FlightAware ADS-B
Thu 07:45:11 53.4250 -3.8950 94° East 495 570 35,000  Level FlightAware ADS-B
Thu 07:45:15 53.4248 -3.8705 94° East 488 562 35,000  Level FlightAware UK
Thu 07:45:45 53.4199 -3.7552 94° East 490 564 35,000  Level FlightAware UK
Thu 07:45:47 53.4200 -3.7540 94° East 495 570 35,000  Level FlightAware ADS-B
Thu 07:46:35 53.3916 -3.5749 105° East 494 568 35,000  Level FlightAware ADS-B
Thu 07:46:48 53.3747 -3.5339 125° Southeast 492 566 35,000  Level FlightAware ADS-B
Thu 07:47:27 53.3177 -3.4248 131° Southeast 491 565 35,000  Level FlightAware ADS-B
Thu 07:48:04 53.2619 -3.3205 132° Southeast 491 565 35,000  Level FlightAware ADS-B
Thu 07:48:34 53.2157 -3.2342 132° Southeast 490 564 35,000  Level FlightAware UK
Thu 07:48:47 53.1951 -3.2022 132° Southeast 491 565 35,000  Level FlightAware ADS-B
Thu 07:49:25 53.1337 -3.0963 134° Southeast 492 566 35,000  Level FlightAware ADS-B
Thu 07:50:00 53.0782 -3.0013 134° Southeast 492 566 35,000  Level FlightAware ADS-B
Thu 07:50:36 53.0230 -2.9070 134° Southeast 492 566 35,000  Level FlightAware ADS-B
Thu 07:50:49 53.0012 -2.8690 134° Southeast 493 567 35,000  Level FlightAware ADS-B
Thu 07:51:21 52.9499 -2.7826 135° Southeast 494 568 35,000  Level FlightAware ADS-B
Thu 07:51:53 52.8996 -2.6993 135° Southeast 493 567 35,000  Level FlightAware ADS-B
Thu 07:52:25 52.8484 -2.6134 135° Southeast 493 567 35,000  Level FlightAware ADS-B
Thu 07:52:56 52.7976 -2.5277 134° Southeast 494 568 35,000  Level FlightAware ADS-B
Thu 07:53:26 52.7492 -2.4474 135° Southeast 494 568 35,000  Level FlightAware ADS-B
Thu 07:53:57 52.6999 -2.3650 135° Southeast 494 568 35,000  Level FlightAware ADS-B
Thu 07:54:29 52.6490 -2.2827 136° Southeast 493 567 35,000  Level FlightAware ADS-B
Thu 07:55:03 52.5958 -2.1905 133° Southeast 493 567 35,000  Level FlightAware ADS-B
Thu 07:55:33 52.5497 -2.1075 132° Southeast 493 567 35,000  Level FlightAware ADS-B
Thu 07:56:03 52.5037 -2.0212 131° Southeast 494 568 35,000  Level FlightAware ADS-B
Thu 07:56:35 52.4546 -1.9323 132° Southeast 494 568 35,000  Level FlightAware ADS-B
Thu 07:57:09 52.4026 -1.8379 132° Southeast 494 568 35,000  Level FlightAware ADS-B
Thu 07:57:41 52.3545 -1.7522 133° Southeast 493 567 35,000  Level FlightAware ADS-B
Thu 07:58:11 52.3076 -1.6666 132° Southeast 493 567 35,000  Level FlightAware ADS-B
Thu 07:58:45 52.2568 -1.5758 132° Southeast 493 567 35,000  Level FlightAware ADS-B
Thu 07:59:15 52.2095 -1.4906 132° Southeast 493 567 35,000  Level FlightAware ADS-B
Thu 07:59:50 52.1571 -1.3975 133° Southeast 493 567 35,000  Level FlightAware ADS-B
Thu 08:00:20 52.1108 -1.3157 133° Southeast 493 567 35,000  Level FlightAware ADS-B
Thu 08:00:51 52.0632 -1.2311 132° Southeast 492 566 35,000  Level FlightAware ADS-B
Thu 08:01:22 52.0157 -1.1467 132° Southeast 493 567 35,000  Level FlightAware ADS-B
Thu 08:01:52 51.9690 -1.0628 132° Southeast 493 567 35,000  Level FlightAware ADS-B
Thu 08:02:23 51.9218 -0.9815 133° Southeast 493 567 35,000  Level FlightAware ADS-B
Thu 08:02:53 51.8748 -0.8980 132° Southeast 492 566 35,000  Level FlightAware ADS-B
Thu 08:03:23 51.8307 -0.8138 130° Southeast 493 567 35,000  Level FlightAware ADS-B
Thu 08:03:39 51.8106 -0.7648 124° Southeast 492 566 35,000  Level FlightAware ADS-B
Thu 08:03:54 51.7940 -0.7168 119° Southeast 493 567 35,000  Level FlightAware ADS-B
Thu 08:04:24 51.7647 -0.6166 115° Southeast 494 568 35,000  Level FlightAware ADS-B
Thu 08:04:55 51.7356 -0.5164 115° Southeast 494 568 35,000  Level FlightAware ADS-B
Thu 08:05:25 51.7061 -0.4131 115° Southeast 495 570 35,000  Level FlightAware ADS-B
Thu 08:05:56 51.6760 -0.3098 115° Southeast 495 570 35,000  Level FlightAware ADS-B
Thu 08:06:28 51.6456 -0.2069 115° Southeast 494 568 35,000  Level FlightAware ADS-B
Thu 08:06:58 51.6161 -0.1075 116° Southeast 494 568 35,000  Level FlightAware ADS-B
Thu 08:07:28 51.5859 -0.0046 115° Southeast 494 568 35,000  Level FlightAware ADS-B
Thu 08:08:00 51.5549 0.1010 115° Southeast 494 568 35,000  Level FlightAware ADS-B
Thu 08:08:30 51.5249 0.2001 116° Southeast 495 570 35,000  Level FlightAware ADS-B
Thu 08:09:01 51.4944 0.3023 116° Southeast 495 570 35,000  Level FlightAware ADS-B
Thu 08:09:35 51.4601 0.4105 117° Southeast 495 570 35,000  Level FlightAware ADS-B
Thu 08:10:07 51.4269 0.5186 116° Southeast 495 570 35,000  Level FlightAware ADS-B
Thu 08:10:39 51.3949 0.6234 116° Southeast 496 571 35,000  Level FlightAware ADS-B
Thu 08:11:10 51.3634 0.7219 117° Southeast 496 571 35,000  Level FlightAware ADS-B
Thu 08:11:41 51.3314 0.8263 116° Southeast 494 568 35,000  Level FlightAware ADS-B
Thu 08:12:12 51.2999 0.9272 116° Southeast 494 568 35,000  Level FlightAware ADS-B
Thu 08:12:27 51.2851 0.9766 116° Southeast 492 566 35,000  Level FlightAware ADS-B
Thu 08:12:47 51.2700 1.0412 110° East 491 565 35,000  Level FlightAware ADS-B
Thu 08:13:21 51.2550 1.1540 102° East 489 563 35,000  Level FlightAware ADS-B
Thu 08:14:00 51.2400 1.3000 102° East 489 563 35,000  Level FlightAware ADS-B
Thu 08:14:01 51.2398 1.3074 102° East 488 562 35,000  Level FlightAware UK
Thu 08:14:44 51.2240 1.4570 99° East 489 563 35,000  Level FlightAware ADS-B
Thu 08:14:52 51.2220 1.4780 99° East 489 563 35,000  Level FlightAware ADS-B
Thu 08:15:37 51.2048 1.6495 99° East 490 564 35,000  Level FlightAware UK
Thu 08:16:19 51.1891 1.7983 99° East 490 564 35,000  Level FlightAware UK
Thu 08:16:24 51.1880 1.8080 99° East 487 560 35,000  Level FlightAware ADS-B
Thu 08:17:06 51.1720 1.9520 100° East 486 559 35,000  Level FlightAware ADS-B
Thu 08:17:37 51.1592 2.0740 100° East 488 562 35,000  Level FlightAware UK
Thu 08:17:47 51.1560 2.1000 100° East 486 559 35,000  Level FlightAware ADS-B
Thu 08:18:23 51.1410 2.2340 100° East 486 559 35,000  Level FlightAware ADS-B
Thu 08:19:24 51.1130 2.4290 103° East 488 562 35,000  Level FlightAware ADS-B
Thu 08:20:02 51.0740 2.5630 115° Southeast 490 564 35,000  Level FlightAware ADS-B
Thu 08:20:48 51.0330 2.7140 113° Southeast 488 562 35,000  Level FlightAware ADS-B
Thu 08:21:32 51.0080 2.8550 106° East 485 558 35,000  Level FlightAware ADS-B
Thu 08:22:11 50.9850 2.9970 104° East 488 562 35,000  Level FlightAware ADS-B
Thu 08:22:48 50.9640 3.1210 105° East 485 558 35,000  Level FlightAware ADS-B
Thu 08:23:33 50.9370 3.2830 105° East 488 562 35,000  Level FlightAware ADS-B
Thu 08:23:37 50.9334 3.3063 105° East 490 564 35,000  Level FlightAware UK
Thu 08:24:07 50.9162 3.4097 105° East 490 564 35,000  Level FlightAware UK
Thu 08:24:18 50.9110 3.4380 105° East 487 560 35,000  Level FlightAware ADS-B
Thu 08:24:59 50.8880 3.5720 105° East 487 560 35,000  Level FlightAware ADS-B
Thu 08:25:31 50.8665 3.6978 105° East 490 564 35,000  Level FlightAware UK
Thu 08:25:43 50.8610 3.7290 105° East 486 559 35,000  Level FlightAware ADS-B
Thu 08:26:23 50.8380 3.8630 105° East 486 559 35,000  Level FlightAware ADS-B
Thu 08:27:04 50.8130 4.0040 106° East 487 560 35,000  Level FlightAware ADS-B
Thu 08:27:48 50.7870 4.1500 106° East 487 560 35,000  Level FlightAware ADS-B
Thu 08:28:32 50.7578 4.3139 106° East 490 564 35,000  Level FlightAware UK
Thu 08:28:34 50.7580 4.3110 106° East 486 559 35,000  Level FlightAware ADS-B
Thu 08:29:13 50.7330 4.4500 106° East 485 558 35,000  Level FlightAware ADS-B
Thu 08:29:44 50.7146 4.5596 106° East 490 564 35,000  Level FlightAware UK
Thu 08:29:53 50.7100 4.5790 106° East 485 558 35,000  Level FlightAware ADS-B
Thu 08:30:26 50.6888 4.7024 106° East 488 562 35,000  Level FlightAware UK
Thu 08:31:09 50.6690 4.8030 106° East 484 557 35,000  Level FlightAware ADS-B
Thu 08:31:51 50.6350 4.9900 106° East 486 559 35,000  Level FlightAware ADS-B
Thu 08:32:27 50.6120 5.1080 107° East 486 559 35,000  Level FlightAware ADS-B
Thu 08:33:06 50.5870 5.2440 106° East 487 560 35,000  Level FlightAware ADS-B
Thu 08:34:03 50.5390 5.4240 113° Southeast 492 566 35,000  Level FlightAware ADS-B
Thu 08:34:43 50.4850 5.5410 126° Southeast 494 568 35,000  Level FlightAware ADS-B
Thu 08:35:19 50.4360 5.6480 126° Southeast 494 568 35,000  Level FlightAware ADS-B
Thu 08:36:03 50.3760 5.7740 127° Southeast 494 568 35,000  Level FlightAware ADS-B
Thu 08:36:43 50.3220 5.8890 126° Southeast 494 568 35,000  Level FlightAware ADS-B
Thu 08:37:25 50.2650 6.0090 127° Southeast 494 568 35,000  Level FlightAware ADS-B
Thu 08:38:05 50.2120 6.1180 127° Southeast 490 564 35,000  Level FlightAware ADS-B
Thu 08:38:49 50.1530 6.2440 126° Southeast 491 565 35,000  Level FlightAware ADS-B
Thu 08:39:29 50.0990 6.3590 126° Southeast 493 567 35,000  Level FlightAware ADS-B
Thu 08:40:09 50.0530 6.4850 120° Southeast 489 563 35,000  Level FlightAware ADS-B
Thu 08:40:56 50.0000 6.6260 120° Southeast 490 564 35,000  Level FlightAware ADS-B
Thu 08:41:36 49.9550 6.7450 120° Southeast 490 564 35,000  Level FlightAware ADS-B
Thu 08:42:14 49.9010 6.8610 126° Southeast 498 573 35,000  Level FlightAware ADS-B
Thu 08:43:00 49.8350 6.9940 128° Southeast 497 572 35,000  Level FlightAware ADS-B
Thu 08:43:46 49.7700 7.1230 128° Southeast 498 573 35,000  Level FlightAware ADS-B
Thu 08:44:26 49.7110 7.2370 129° Southeast 498 573 35,000 42 Level FlightAware ADS-B
Thu 08:47:00 49.5277 7.7169 120° Southeast  Level Estimated
Thu 08:48:00 49.4557 7.9029 121° Southeast  Level Estimated
Thu 08:49:00 49.3835 8.0884 121° Southeast  Level Estimated
Thu 08:50:00 49.3109 8.2732 121° Southeast  Level Estimated
Thu 08:51:00 49.2381 8.4576 121° Southeast  Level Estimated
Thu 08:52:00 49.1650 8.6414 121° Southeast  Level Estimated
Thu 08:53:00 49.0915 8.8247 121° Southeast  Level Estimated
Thu 08:54:00 49.0178 9.0074 122° Southeast  Level Estimated
Thu 08:55:00 48.9438 9.1896 122° Southeast  Level Estimated
Thu 08:56:00 48.8695 9.3713 122° Southeast  Level Estimated
Thu 08:57:00 48.7950 9.5524 122° Southeast  Level Estimated
Thu 08:58:00 48.7201 9.7329 122° Southeast  Level Estimated
Thu 08:59:00 48.6450 9.9130 122° Southeast  Level Estimated
Thu 09:00:00 48.5696 10.0925 122° Southeast  Level Estimated
Thu 09:01:00 48.4939 10.2714 123° Southeast  Level Estimated
Thu 09:02:00 48.4179 10.4498 123° Southeast  Level Estimated
Thu 09:03:00 48.3417 10.6277 123° Southeast  Level Estimated
Thu 09:04:00 48.2651 10.8051 123° Southeast  Level Estimated
Thu 09:05:00 48.1884 10.9819 123° Southeast  Level Estimated
Thu 09:06:00 48.1113 11.1582 123° Southeast  Level Estimated
Thu 09:07:00 48.0340 11.3340 123° Southeast  Level Estimated
Thu 09:08:00 47.9564 11.5092 123° Southeast  Level Estimated
Thu 09:09:00 47.8785 11.6839 124° Southeast  Level Estimated
Thu 09:10:00 47.8004 11.8581 124° Southeast  Level Estimated
Thu 09:11:00 47.7220 12.0318 124° Southeast  Level Estimated
Thu 09:12:00 47.6433 12.2049 124° Southeast  Level Estimated
Thu 09:13:00 47.5644 12.3776 124° Southeast  Level Estimated
Thu 09:14:00 47.4852 12.5497 124° Southeast  Level Estimated
Thu 09:15:00 47.4058 12.7212 124° Southeast  Level Estimated
Thu 09:16:00 47.3261 12.8923 124° Southeast  Level Estimated
Thu 09:17:00 47.2462 13.0628 125° Southeast  Level Estimated
Thu 09:18:00 47.1660 13.2329 125° Southeast  Level Estimated
Thu 09:19:00 47.0856 13.4024 125° Southeast  Level Estimated
Thu 09:20:00 47.0049 13.5714 125° Southeast  Level Estimated
Thu 09:21:00 46.9240 13.7399 125° Southeast  Level Estimated
Thu 09:22:00 46.8428 13.9079 125° Southeast  Level Estimated
Thu 09:23:00 46.7613 14.0754 125° Southeast  Level Estimated
Thu 09:24:00 46.6797 14.2423 125° Southeast  Level Estimated
Thu 09:25:00 46.5978 14.4088 126° Southeast  Level Estimated
Thu 09:26:00 46.5156 14.5748 126° Southeast  Level Estimated
Thu 09:27:00 46.4328 14.7411 126° Southeast  Level Estimated
Thu 09:28:00 46.3498 14.9069 126° Southeast  Level Estimated
Thu 09:29:00 46.2665 15.0722 126° Southeast  Level Estimated
Thu 09:30:00 46.1829 15.2370 126° Southeast  Level Estimated
Thu 09:31:00 46.0992 15.4012 126° Southeast  Level Estimated
Thu 09:31:21 45.0080 14.0300 126° Southeast 511 588 37,000  Level FlightAware ADS-B
Thu 09:31:58 44.9490 14.1400 127° Southeast 512 589 37,000  Level FlightAware ADS-B
Thu 09:32:00 46.0152 15.5650 126° Southeast  Level Estimated
Thu 09:32:43 44.8850 14.2580 127° Southeast 512 589 37,000  Level FlightAware ADS-B
Thu 09:33:18 44.8360 14.3500 127° Southeast 513 590 37,000  Level FlightAware ADS-B
Thu 09:33:58 44.7750 14.4620 127° Southeast 513 590 37,000  Level FlightAware ADS-B
Thu 09:34:42 44.7080 14.5840 128° Southeast 511 588 37,000  Level FlightAware ADS-B
Thu 09:35:23 44.6500 14.6910 127° Southeast 510 587 37,000  Level FlightAware ADS-B
Thu 09:36:17 44.5700 14.8360 128° Southeast 508 585 37,000  Level FlightAware ADS-B
Thu 09:36:57 44.5140 14.9370 128° Southeast 508 585 37,000  Level FlightAware ADS-B
Thu 09:38:00 44.4360 15.0810 127° Southeast 505 581 37,000  Level FlightAware ADS-B
Thu 09:38:28 44.3840 15.1720 129° Southeast 503 579 37,000  Level FlightAware ADS-B
Thu 09:39:13 44.3190 15.2870 128° Southeast 503 579 37,000  Level FlightAware ADS-B
Thu 09:40:08 44.2410 15.4250 128° Southeast 502 578 37,000  Level FlightAware ADS-B
Thu 09:40:53 44.1770 15.5350 129° Southeast 505 581 37,000  Level FlightAware ADS-B
Thu 09:41:37 44.0960 15.6290 140° Southeast 496 571 37,000  Level FlightAware ADS-B
Thu 09:42:17 44.0250 15.7080 141° Southeast 496 571 37,000  Level FlightAware ADS-B
Thu 09:43:02 43.9390 15.7900 146° Southeast 486 559 37,000  Level FlightAware ADS-B
Thu 09:43:33 43.8820 15.8450 145° Southeast 492 566 37,000  Level FlightAware ADS-B
Thu 09:44:18 43.7980 15.9220 147° Southeast 485 558 37,000  Level FlightAware ADS-B
Thu 09:44:58 43.7260 15.9860 147° Southeast 492 566 37,000  Level FlightAware ADS-B
Thu 09:45:32 43.6530 16.0470 149° Southeast 489 563 37,000  Level FlightAware ADS-B
Thu 09:46:12 43.5720 16.1150 149° Southeast 497 572 37,000  Level FlightAware ADS-B
Thu 09:46:53 43.4960 16.1840 147° Southeast 494 568 37,000  Level FlightAware ADS-B
Thu 09:47:32 43.4260 16.2670 139° Southeast 502 578 37,000  Level FlightAware ADS-B
Thu 09:48:12 43.3570 16.3590 136° Southeast 507 583 37,000  Level FlightAware ADS-B
Thu 09:48:50 43.2940 16.4430 136° Southeast 511 588 37,000  Level FlightAware ADS-B
Thu 09:49:38 43.2200 16.5710 128° Southeast 516 594 37,000  Level FlightAware ADS-B
Thu 09:50:20 43.1650 16.6820 124° Southeast 516 594 37,000  Level FlightAware ADS-B
Thu 09:51:04 43.1040 16.8030 125° Southeast 516 594 37,000  Level FlightAware ADS-B
Thu 09:51:44 43.0500 16.9100 125° Southeast 515 593 37,000  Level FlightAware ADS-B
Thu 09:52:20 43.0020 17.0030 125° Southeast 514 592 37,000  Level FlightAware ADS-B
Thu 09:53:02 42.9430 17.1170 125° Southeast 512 589 37,000  Level FlightAware ADS-B
Thu 09:53:44 42.8870 17.2250 125° Southeast 512 589 37,000  Level FlightAware ADS-B
Thu 09:54:20 42.8370 17.3230 125° Southeast 513 590 37,000  Level FlightAware ADS-B
Thu 09:55:00 42.7830 17.4260 126° Southeast 513 590 37,000  Level FlightAware ADS-B
Thu 09:55:44 42.7230 17.5420 125° Southeast 513 590 37,000  Level FlightAware ADS-B
Thu 09:56:24 42.6680 17.6480 125° Southeast 513 590 37,000  Level FlightAware ADS-B
Thu 09:57:08 42.6080 17.7610 126° Southeast 513 590 37,000  Level FlightAware ADS-B
Thu 09:57:50 42.5490 17.8760 125° Southeast 514 592 37,000  Level FlightAware ADS-B
Thu 09:58:30 42.4940 17.9790 126° Southeast 516 594 37,000  Level FlightAware ADS-B
Thu 09:59:08 42.4410 18.0810 125° Southeast 516 594 37,000  Level FlightAware ADS-B
Thu 09:59:48 42.3870 18.1840 125° Southeast 517 595 37,000  Level FlightAware ADS-B
Thu 10:00:30 42.3270 18.2940 126° Southeast 515 593 37,000  Level FlightAware ADS-B
Thu 10:01:12 42.2690 18.4040 125° Southeast 515 593 37,000  Level FlightAware ADS-B
Thu 10:01:55 42.2100 18.5130 126° Southeast 514 592 37,000  Level FlightAware ADS-B
Thu 10:02:35 42.1530 18.6200 126° Southeast 515 593 37,000  Level FlightAware ADS-B
Thu 10:03:17 42.0880 18.7200 131° Southeast 512 589 37,000  Level FlightAware ADS-B
Thu 10:04:01 42.0160 18.8250 133° Southeast 512 589 37,000  Level FlightAware ADS-B
Thu 10:04:27 41.9770 18.8820 133° Southeast 513 590 37,000  Level FlightAware ADS-B
Thu 10:05:19 41.8920 19.0100 132° Southeast 514 592 37,000  Level FlightAware ADS-B
Thu 10:05:59 41.8300 19.1030 132° Southeast 514 592 37,000  Level FlightAware ADS-B
Thu 10:06:39 41.7670 19.1980 132° Southeast 514 592 37,000  Level FlightAware ADS-B
Thu 10:07:23 41.6960 19.3020 132° Southeast 514 592 37,000  Level FlightAware ADS-B
Thu 10:08:05 41.6290 19.4040 131° Southeast 514 592 37,000  Level FlightAware ADS-B
Thu 10:08:48 41.5620 19.5030 132° Southeast 513 590 37,000  Level FlightAware ADS-B
Thu 10:09:31 41.4920 19.6070 132° Southeast 513 590 37,000  Level FlightAware ADS-B
Thu 10:10:11 41.4300 19.6980 132° Southeast 511 588 37,000  Level FlightAware ADS-B
Thu 10:10:51 41.3640 19.7910 133° Southeast 509 586 37,000  Level FlightAware ADS-B
Thu 10:11:28 41.3220 19.8460 135° Southeast 508 585 37,000  Level FlightAware ADS-B
Thu 10:12:18 41.2410 19.9540 135° Southeast 506 582 37,000  Level FlightAware ADS-B
Thu 10:13:01 41.1490 20.0750 135° Southeast 503 579 37,000  Level FlightAware ADS-B
Thu 10:13:31 41.0990 20.1410 135° Southeast 502 578 37,000  Level FlightAware ADS-B
Thu 10:14:15 41.0270 20.2390 134° Southeast 502 578 37,000  Level FlightAware ADS-B
Thu 10:14:57 40.9590 20.3290 135° Southeast 504 580 37,000  Level FlightAware ADS-B
Thu 10:15:41 40.8890 20.4200 135° Southeast 504 580 37,000  Level FlightAware ADS-B
Thu 10:16:16 40.8310 20.4990 134° Southeast 504 580 37,000  Level FlightAware ADS-B
Thu 10:17:06 40.7460 20.6100 135° Southeast 506 582 37,000  Level FlightAware ADS-B
Thu 10:17:44 40.6860 20.6880 135° Southeast 509 586 37,000  Level FlightAware ADS-B
Thu 10:18:25 40.6130 20.7840 135° Southeast 510 587 37,000  Level FlightAware ADS-B
Thu 10:19:07 40.5430 20.8740 136° Southeast 511 588 37,000  Level FlightAware ADS-B
Thu 10:19:51 40.4680 20.9710 135° Southeast 510 587 37,000  Level FlightAware ADS-B
Thu 10:20:36 40.3930 21.0570 139° Southeast 510 587 37,000  Level FlightAware ADS-B
Thu 10:21:15 40.3200 21.1410 139° Southeast 514 592 37,000  Level FlightAware ADS-B
Thu 10:21:59 40.2440 21.2390 135° Southeast 524 603 37,000  Level FlightAware ADS-B
Thu 10:22:33 40.1880 21.3180 133° Southeast 528 608 37,000  Level FlightAware ADS-B
Thu 10:23:17 40.1160 21.4250 131° Southeast 529 609 37,000  Level FlightAware ADS-B
Thu 10:23:57 40.0510 21.5180 132° Southeast 529 609 37,000  Level FlightAware ADS-B
Thu 10:24:41 39.9780 21.6250 132° Southeast 526 605 37,000  Level FlightAware ADS-B
Thu 10:25:20 39.9160 21.7140 132° Southeast 524 603 37,000  Level FlightAware ADS-B
Thu 10:26:01 39.8500 21.8110 132° Southeast 524 603 37,000  Level FlightAware ADS-B
Thu 10:26:43 39.7810 21.9090 132° Southeast 522 601 37,000  Level FlightAware ADS-B
Thu 10:27:19 39.7230 21.9920 132° Southeast 521 600 37,000  Level FlightAware ADS-B
Thu 10:28:01 39.6550 22.0900 132° Southeast 517 595 37,000  Level FlightAware ADS-B
Thu 10:28:45 39.5850 22.1910 132° Southeast 516 594 37,000  Level FlightAware ADS-B
Thu 10:29:21 39.5270 22.2750 132° Southeast 515 593 37,000  Level FlightAware ADS-B
Thu 10:30:01 39.4630 22.3640 133° Southeast 516 594 37,000  Level FlightAware ADS-B
Thu 10:30:43 39.3960 22.4600 132° Southeast 517 595 37,000  Level FlightAware ADS-B
Thu 10:31:26 39.3270 22.5580 132° Southeast 517 595 37,000  Level FlightAware ADS-B
Thu 10:32:07 39.2590 22.6540 132° Southeast 520 598 37,000  Level FlightAware ADS-B
Thu 10:32:51 39.1890 22.7510 133° Southeast 522 601 37,000  Level FlightAware ADS-B
Thu 10:33:32 39.1210 22.8470 132° Southeast 523 602 37,000  Level FlightAware ADS-B
Thu 10:34:07 39.0640 22.9270 133° Southeast 523 602 37,000  Level FlightAware ADS-B
Thu 10:34:49 38.9940 23.0230 133° Southeast 525 604 37,000  Level FlightAware ADS-B
Thu 10:35:29 38.9280 23.1170 132° Southeast 526 605 37,000  Level FlightAware ADS-B
Thu 10:36:08 38.8640 23.2040 133° Southeast 527 606 37,000  Level FlightAware ADS-B
Thu 10:36:48 38.7990 23.2940 133° Southeast 528 608 37,000  Level FlightAware ADS-B
Thu 10:37:29 38.7290 23.3900 133° Southeast 527 606 37,000  Level FlightAware ADS-B
Thu 10:38:08 38.6650 23.4790 133° Southeast 525 604 37,000  Level FlightAware ADS-B
Thu 10:38:52 38.5910 23.5810 133° Southeast 523 602 37,000  Level FlightAware ADS-B
Thu 10:39:34 38.5230 23.6730 133° Southeast 522 601 37,000  Level FlightAware ADS-B
Thu 10:40:16 38.4520 23.7700 133° Southeast 521 600 37,000  Level FlightAware ADS-B
Thu 10:42:00 38.3219 24.0342 122° Southeast  Level Estimated
Thu 10:42:50 38.1980 24.1130 122° Southeast 520 598 37,000  Level FlightAware ADS-B
Thu 10:43:00 38.2465 24.1861 122° Southeast  Level Estimated
Thu 10:43:30 38.1320 24.2000 134° Southeast 521 600 37,000  Level FlightAware ADS-B
Thu 10:44:08 38.0680 24.2860 133° Southeast 517 595 37,000  Level FlightAware ADS-B
Thu 10:44:53 37.9940 24.3850 133° Southeast 515 593 37,000  Level FlightAware ADS-B
Thu 10:45:35 37.9260 24.4750 134° Southeast 514 592 37,000  Level FlightAware ADS-B
Thu 10:46:14 37.8690 24.5640 129° Southeast 521 600 37,000  Level FlightAware ADS-B
Thu 10:46:47 37.8200 24.6470 127° Southeast 523 602 37,000  Level FlightAware ADS-B
Thu 10:47:19 37.7740 24.7270 126° Southeast 524 603 37,000  Level FlightAware ADS-B
Thu 10:48:03 37.7120 24.8390 125° Southeast 524 603 37,000  Level FlightAware ADS-B
Thu 10:48:41 37.6580 24.9310 127° Southeast 525 604 37,000  Level FlightAware ADS-B
Thu 10:49:25 37.5970 25.0410 125° Southeast 526 605 37,000  Level FlightAware ADS-B
Thu 10:50:10 37.5330 25.1540 126° Southeast 526 605 37,000  Level FlightAware ADS-B
Thu 10:50:35 37.4990 25.2160 125° Southeast 525 604 37,000  Level FlightAware ADS-B
Thu 10:51:21 37.4320 25.3300 126° Southeast 524 603 37,000  Level FlightAware ADS-B
Thu 10:52:01 37.3770 25.4290 125° Southeast 522 601 37,000  Level FlightAware ADS-B
Thu 10:52:40 37.3230 25.5230 126° Southeast 520 598 37,000  Level FlightAware ADS-B
Thu 10:53:26 37.2580 25.6380 125° Southeast 518 596 37,000  Level FlightAware ADS-B
Thu 10:54:19 37.1820 25.7690 126° Southeast 518 596 37,000  Level FlightAware ADS-B
Thu 10:55:05 37.1190 25.8780 126° Southeast 515 593 37,000  Level FlightAware ADS-B
Thu 10:55:43 37.0650 25.9700 126° Southeast 513 590 37,000  Level FlightAware ADS-B
Thu 10:56:21 37.0110 26.0640 126° Southeast 512 589 37,000  Level FlightAware ADS-B
Thu 10:57:01 36.9550 26.1600 126° Southeast 512 589 37,000  Level FlightAware ADS-B
Thu 10:57:41 36.9000 26.2550 126° Southeast 511 588 37,000  Level FlightAware ADS-B
Thu 10:58:21 36.8440 26.3500 126° Southeast 511 588 37,000  Level FlightAware ADS-B
Thu 10:59:01 36.7880 26.4450 126° Southeast 511 588 37,000  Level FlightAware ADS-B
Thu 10:59:41 36.7320 26.5380 127° Southeast 513 590 37,000  Level FlightAware ADS-B
Thu 11:00:25 36.6700 26.6460 126° Southeast 515 593 37,000  Level FlightAware ADS-B
Thu 11:01:07 36.6110 26.7440 127° Southeast 516 594 37,000  Level FlightAware ADS-B
Thu 11:01:47 36.5560 26.8370 126° Southeast 517 595 37,000  Level FlightAware ADS-B
Thu 11:02:31 36.4910 26.9440 127° Southeast 517 595 37,000  Level FlightAware ADS-B
Thu 11:03:31 36.4130 27.0770 126° Southeast 516 594 37,000  Level FlightAware ADS-B
Thu 11:04:32 36.3290 27.2160 127° Southeast 517 595 37,000  Level FlightAware ADS-B
Thu 11:05:10 36.2690 27.3170 126° Southeast 515 593 37,000  Level FlightAware ADS-B
Thu 11:05:48 36.2230 27.3940 127° Southeast 515 593 37,000  Level FlightAware ADS-B
Thu 11:06:28 36.1710 27.4790 127° Southeast 515 593 37,000  Level FlightAware ADS-B
Thu 11:07:05 36.1270 27.5540 126° Southeast 515 593 37,000  Level FlightAware ADS-B
Thu 11:08:05 36.0170 27.7300 128° Southeast 37,000  Level FlightAware ADS-B
Thu 11:08:47 35.9530 27.8340 127° Southeast 520 598 37,000  Level FlightAware ADS-B
Thu 11:09:24 35.8990 27.9220 127° Southeast 521 600 37,000  Level FlightAware ADS-B
Thu 11:10:10 35.8340 28.0280 127° Southeast 519 597 37,000  Level FlightAware ADS-B
Thu 11:10:50 35.7750 28.1240 127° Southeast 516 594 37,000  Level FlightAware ADS-B
Thu 11:11:43 35.7130 28.2250 127° Southeast 515 593 37,000  Level FlightAware ADS-B
Thu 11:12:28 35.6330 28.3520 128° Southeast 510 587 37,000  Level FlightAware ADS-B
Thu 11:13:08 35.5760 28.4440 127° Southeast 505 581 37,000  Level FlightAware ADS-B
Thu 11:13:47 35.5210 28.5320 128° Southeast 504 580 37,000  Level FlightAware ADS-B
Thu 11:14:31 35.4580 28.6320 128° Southeast 502 578 37,000  Level FlightAware ADS-B
Thu 11:15:07 35.4060 28.7150 128° Southeast 502 578 37,000  Level FlightAware ADS-B
Thu 11:15:45 35.3520 28.8010 128° Southeast 504 580 37,000  Level FlightAware ADS-B
Thu 11:16:30 35.2940 28.8920 128° Southeast 504 580 37,000  Level FlightAware ADS-B
Thu 11:17:11 35.2340 28.9870 128° Southeast 506 582 37,000  Level FlightAware ADS-B
Thu 11:17:46 35.1850 29.0660 127° Southeast 506 582 37,000  Level FlightAware ADS-B
Thu 11:18:26 35.1370 29.1440 127° Southeast 506 582 37,000  Level FlightAware ADS-B
Thu 11:19:06 35.0710 29.2430 129° Southeast 503 579 37,000  Level FlightAware ADS-B
Thu 11:20:02 34.9900 29.3690 128° Southeast 504 580 37,000  Level FlightAware ADS-B
Thu 11:20:48 34.9190 29.4810 128° Southeast 506 582 37,000  Level FlightAware ADS-B
Thu 11:21:27 34.8630 29.5690 128° Southeast 507 583 37,000  Level FlightAware ADS-B
Thu 11:22:07 34.8010 29.6640 128° Southeast 508 585 37,000  Level FlightAware ADS-B
Thu 11:22:43 34.7490 29.7440 128° Southeast 508 585 37,000  Level FlightAware ADS-B
Thu 11:23:29 34.6820 29.8480 128° Southeast 507 583 37,000  Level FlightAware ADS-B
Thu 11:24:21 34.6180 29.9470 128° Southeast 507 583 37,000  Level FlightAware ADS-B
Thu 11:25:04 34.5590 30.0710 120° Southeast 518 596 37,000  Level FlightAware ADS-B
Thu 11:25:40 34.5140 30.1710 119° Southeast 517 595 37,000  Level FlightAware ADS-B
Thu 11:26:25 34.4610 30.2850 119° Southeast 520 598 37,000  Level FlightAware ADS-B
Thu 11:27:06 34.4120 30.3830 121° Southeast 514 592 37,000  Level FlightAware ADS-B
Thu 11:27:45 34.3640 30.4830 120° Southeast 514 592 37,000  Level FlightAware ADS-B
Thu 11:28:30 34.3080 30.5970 121° Southeast 514 592 37,000  Level FlightAware ADS-B
Thu 11:29:11 34.2580 30.6990 121° Southeast 514 592 37,000  Level FlightAware ADS-B
Thu 11:29:56 34.2060 30.8060 120° Southeast 512 589 37,000  Level FlightAware ADS-B
Thu 11:30:36 34.1550 30.9080 121° Southeast 514 592 37,000  Level FlightAware ADS-B
Thu 11:31:21 34.1000 31.0210 120° Southeast 512 589 37,000  Level FlightAware ADS-B
Thu 11:32:01 34.0510 31.1190 121° Southeast 512 589 37,000  Level FlightAware ADS-B
Thu 11:32:42 34.0020 31.2200 120° Southeast 510 587 37,000  Level FlightAware ADS-B
Thu 11:33:28 33.9460 31.3320 121° Southeast 510 587 37,000  Level FlightAware ADS-B
Thu 11:34:08 33.8970 31.4290 121° Southeast 510 587 37,000  Level FlightAware ADS-B
Thu 11:34:49 33.8490 31.5270 121° Southeast 509 586 37,000  Level FlightAware ADS-B
Thu 11:35:30 33.7990 31.6260 121° Southeast 508 585 37,000  Level FlightAware ADS-B
Thu 11:36:09 33.7510 31.7200 122° Southeast 505 581 37,000  Level FlightAware ADS-B
Thu 11:36:45 33.7090 31.8070 120° Southeast 502 578 37,000  Level FlightAware ADS-B
Thu 11:37:30 33.6530 31.9160 122° Southeast 502 578 37,000  Level FlightAware ADS-B
Thu 11:38:05 33.6120 31.9970 121° Southeast 501 577 37,000  Level FlightAware ADS-B
Thu 11:38:46 33.5630 32.0950 121° Southeast 502 578 37,000  Level FlightAware ADS-B
Thu 11:39:27 33.5140 32.1920 121° Southeast 503 579 37,000  Level FlightAware ADS-B
Thu 11:40:07 33.4650 32.2880 121° Southeast 504 580 37,000  Level FlightAware ADS-B
Thu 11:40:52 33.4090 32.3970 122° Southeast 500 575 37,000  Level FlightAware ADS-B
Thu 11:41:33 33.3610 32.4900 122° Southeast 499 574 37,000 -345 Level FlightAware ADS-B
Thu 11:42:19 33.3030 32.6030 122° Southeast 499 574 36,500 -1,317 Descending FlightAware ADS-B
Thu 11:42:55 33.2610 32.6860 121° Southeast 498 573 35,200 -2,296 Descending FlightAware ADS-B
Thu 11:43:40 33.2060 32.7930 122° Southeast 491 565 33,400 -1,630 Descending FlightAware ADS-B
Thu 11:44:27 33.1600 32.8810 122° Southeast 489 563 32,700 -2,188 Descending FlightAware ADS-B
Thu 11:45:16 33.0990 32.9970 122° Southeast 469 540 29,900 -2,905 Descending FlightAware ADS-B
Thu 11:46:02 33.0400 33.1110 122° Southeast 462 532 28,100 -2,233 Descending FlightAware ADS-B
Thu 11:46:42 32.9950 33.1960 122° Southeast 448 516 26,700 -2,000 Descending FlightAware ADS-B
Thu 11:47:20 32.9550 33.2750 121° Southeast 436 502 25,500 -1,952 Descending FlightAware ADS-B
Thu 11:48:05 32.9070 33.3650 122° Southeast 424 488 24,000 -1,939 Descending FlightAware ADS-B
Thu 11:48:59 32.8520 33.4700 122° Southeast 410 472 22,300 -1,860 Descending FlightAware ADS-B
Thu 11:49:45 32.8060 33.5560 122° Southeast 397 457 20,900 -1,807 Descending FlightAware ADS-B
Thu 11:50:22 32.7700 33.6260 121° Southeast 389 448 19,800 -1,737 Descending FlightAware ADS-B
Thu 11:51:01 32.7340 33.6940 122° Southeast 389 448 18,700 -1,735 Descending FlightAware ADS-B
Thu 11:51:45 32.6900 33.7750 123° Southeast 398 458 17,400 -1,852 Descending FlightAware ADS-B
Thu 11:52:22 32.6540 33.8440 122° Southeast 389 448 16,200 -1,636 Descending FlightAware ADS-B
Thu 11:53:02 32.6160 33.9150 122° Southeast 373 429 15,300 -1,171 Descending FlightAware ADS-B
Thu 11:53:44 32.5790 33.9840 122° Southeast 350 403 14,600 -1,407 Descending FlightAware ADS-B
Thu 11:54:23 32.5460 34.0450 123° Southeast 336 387 13,400 -1,630 Descending FlightAware ADS-B
Thu 11:55:05 32.5120 34.1100 122° Southeast 329 379 12,400 -1,465 Descending FlightAware ADS-B
Thu 11:55:49 32.4730 34.1750 125° Southeast 322 371 11,300 -1,379 Descending FlightAware ADS-B
Thu 11:56:32 32.4280 34.2290 135° Southeast 316 364 10,400 -1,324 Descending FlightAware ADS-B
Thu 11:56:57 32.4030 34.2580 136° Southeast 313 360 9,800 -1,421 Descending FlightAware ADS-B
Thu 11:57:10 32.3880 34.2750 136° Southeast 311 358 9,500 -436 Descending FlightAware ADS-B
Thu 11:57:52 32.3520 34.3170 135° Southeast 311 358 9,400 -1,292 Descending FlightAware ADS-B
Thu 11:58:15 32.3250 34.3490 135° Southeast 302 348 8,100 -2,462 Descending FlightAware ADS-B
Thu 11:58:31 32.3090 34.3680 135° Southeast 299 344 7,800 -522 Descending FlightAware ADS-B
Thu 11:59:01 32.2830 34.3990 135° Southeast 298 343 7,700 -1,059 Descending FlightAware ADS-B
Thu 11:59:22 32.2690 34.4270 121° Southeast 292 336 6,900 -1,846 Descending FlightAware ADS-B
Thu 11:59:40 32.2540 34.4520 125° Southeast 287 330 6,500 -1,286 Descending FlightAware ADS-B
Thu 12:00:04 32.2340 34.4850 126° Southeast 282 325 6,000 -833 Descending FlightAware ADS-B
Thu 12:00:52 32.2010 34.5420 124° Southeast 280 322 5,500 -649 Descending FlightAware ADS-B
Thu 12:01:18 32.1810 34.5760 125° Southeast 268 308 5,200 -462 Descending FlightAware ADS-B
Thu 12:01:31 32.1720 34.5900 127° Southeast 268 308 5,200  Level FlightAware ADS-B
Thu 12:01:55 32.1560 34.6180 124° Southeast 267 307 5,200  Level FlightAware ADS-B
Thu 12:02:25 32.1330 34.6550 126° Southeast 267 307 5,200  Level FlightAware ADS-B
Thu 12:02:43 32.1200 34.6760 126° Southeast 267 307 5,200  Level FlightAware ADS-B
Thu 12:03:07 32.1030 34.7050 125° Southeast 268 308 5,200  Level FlightAware ADS-B
Thu 12:03:37 32.0820 34.7410 125° Southeast 254 292 5,200  Level FlightAware ADS-B
Thu 12:03:49 32.0740 34.7530 128° Southeast 246 283 5,200  Level FlightAware ADS-B
Thu 12:04:20 32.0520 34.7850 129° Southeast 235 270 5,200 -218 Level FlightAware ADS-B
Thu 12:04:44 32.0330 34.8060 137° Southeast 231 266 5,000 -556 Descending FlightAware ADS-B
Thu 12:05:14 32.0100 34.8330 135° Southeast 234 269 4,700 -828 Descending FlightAware ADS-B
Thu 12:05:42 31.9880 34.8570 137° Southeast 224 258 4,200 -1,355 Descending FlightAware ADS-B
Thu 12:06:16 31.9730 34.8900 118° Southeast 200 230 3,300 -1,219 Descending FlightAware ADS-B
Thu 12:06:46 31.9780 34.9160 77° East 193 222 2,900 -581 Descending FlightAware ADS-B
Thu 12:07:18 31.9850 34.9470 75° East 186 214 2,700 -375 Descending FlightAware ADS-B
Thu 12:09:00 32.0095 34.8769 292° West  Level Estimated
Thu 12:10:00 32.0095 34.8769 270° West  Level Estimated

Login

Don't have an account? Register now (free) for customized features, flight alerts, and more!